createdAt,value
2022-11-24T00:00:53.893Z,16.32
2022-11-24T00:03:41.090Z,19.23
2022-11-24T00:06:29.157Z,14.03
2022-11-24T00:09:16.611Z,16.93
2022-11-24T00:15:06.010Z,14.18
2022-11-24T00:17:53.383Z,15.28
2022-11-24T00:20:40.923Z,14.07
2022-11-24T00:23:28.708Z,13.20
2022-11-24T00:26:21.719Z,17.32
2022-11-24T00:29:10.451Z,15.70
2022-11-24T00:31:58.200Z,16.27
2022-11-24T00:34:45.642Z,16.55
2022-11-24T00:37:32.898Z,15.32
2022-11-24T00:40:22.333Z,13.35
2022-11-24T00:43:10.201Z,21.60
2022-11-24T00:45:57.594Z,12.53
2022-11-24T00:48:44.863Z,13.53
2022-11-24T00:51:32.303Z,13.60
2022-11-24T00:54:19.711Z,13.80
2022-11-24T00:57:07.183Z,16.45
2022-11-24T00:59:54.751Z,11.68
2022-11-24T01:02:42.584Z,13.58
2022-11-24T01:05:29.772Z,15.70
2022-11-24T01:08:17.314Z,16.97
2022-11-24T01:11:18.901Z,15.88
2022-11-24T01:14:06.314Z,10.80
2022-11-24T01:16:54.007Z,14.65
2022-11-24T01:19:41.197Z,13.83
2022-11-24T01:22:30.791Z,22.07
2022-11-24T01:25:18.009Z,14.63
2022-11-24T01:28:05.600Z,15.98
2022-11-24T01:31:00.862Z,13.88
2022-11-24T01:33:47.998Z,16.27
2022-11-24T01:36:35.573Z,19.50
2022-11-24T01:39:23.623Z,18.50
2022-11-24T01:42:11.382Z,15.00
2022-11-24T01:45:30.489Z,15.30
2022-11-24T01:48:30.366Z,14.25
2022-11-24T01:51:22.641Z,16.82
2022-11-24T01:54:15.448Z,15.03
2022-11-24T01:57:05.858Z,13.05
2022-11-24T01:59:59.405Z,10.95
2022-11-24T02:02:47.245Z,13.03
2022-11-24T02:05:40.723Z,18.23
2022-11-24T02:08:42.518Z,13.55
2022-11-24T02:11:38.649Z,19.25
2022-11-24T02:14:27.432Z,15.35
2022-11-24T02:17:14.912Z,11.60
2022-11-24T02:20:04.998Z,14.73
2022-11-24T02:23:22.148Z,15.70
2022-11-24T02:26:18.522Z,15.53
2022-11-24T02:29:06.256Z,15.80
2022-11-24T02:31:56.436Z,14.58
2022-11-24T02:34:43.439Z,16.37
2022-11-24T02:37:31.070Z,17.52
2022-11-24T02:40:22.982Z,12.75
2022-11-24T02:43:13.547Z,16.32
2022-11-24T02:46:00.656Z,15.13
2022-11-24T02:48:48.083Z,20.08
2022-11-24T02:51:35.516Z,22.00
2022-11-24T02:54:25.939Z,17.42
2022-11-24T02:57:13.504Z,15.80
2022-11-24T03:00:01.106Z,17.30
2022-11-24T03:02:48.756Z,19.60
2022-11-24T03:05:36.097Z,21.30
2022-11-24T03:08:23.650Z,14.28
2022-11-24T03:11:11.216Z,19.50
2022-11-24T03:13:59.334Z,20.88
2022-11-24T03:16:46.649Z,19.20
2022-11-24T03:19:34.223Z,25.00
2022-11-24T03:22:23.107Z,18.05
2022-11-24T03:25:11.133Z,25.52
2022-11-24T03:27:58.620Z,17.52
2022-11-24T03:30:47.773Z,19.27
2022-11-24T03:33:35.813Z,18.55
2022-11-24T03:36:23.405Z,22.90
2022-11-24T03:39:10.993Z,20.68
2022-11-24T03:41:58.519Z,23.45
2022-11-24T03:44:45.937Z,25.72
2022-11-24T03:47:33.351Z,26.00
2022-11-24T03:50:22.504Z,27.60
2022-11-24T03:53:09.423Z,20.52
2022-11-24T03:55:57.577Z,23.38
2022-11-24T03:58:44.882Z,20.43
2022-11-24T04:01:32.447Z,25.37
2022-11-24T04:04:19.899Z,26.52
2022-11-24T04:07:07.385Z,33.48
2022-11-24T04:09:54.586Z,21.45
2022-11-24T04:12:46.347Z,26.12
2022-11-24T04:15:33.529Z,23.07
2022-11-24T04:18:21.519Z,15.93
2022-11-24T04:21:08.878Z,29.65
2022-11-24T04:23:56.141Z,19.02
2022-11-24T04:26:43.589Z,22.70
2022-11-24T04:29:31.323Z,31.73
2022-11-24T04:32:18.940Z,22.37
2022-11-24T04:35:06.531Z,21.00
2022-11-24T04:37:53.798Z,23.87
2022-11-24T04:40:41.493Z,25.48
2022-11-24T04:43:28.588Z,21.87
2022-11-24T04:46:15.872Z,18.77
2022-11-24T04:49:03.327Z,19.48
2022-11-24T04:51:53.814Z,19.90
2022-11-24T04:54:40.882Z,18.75
2022-11-24T04:57:28.650Z,34.10
2022-11-24T05:00:16.589Z,24.85
2022-11-24T05:03:04.534Z,24.50
2022-11-24T05:05:52.718Z,16.55
2022-11-24T05:08:40.026Z,20.75
2022-11-24T05:11:27.562Z,21.95
2022-11-24T05:14:14.872Z,24.47
2022-11-24T05:17:02.172Z,24.37
2022-11-24T05:19:49.643Z,19.70
2022-11-24T05:22:37.145Z,21.95
2022-11-24T05:25:24.630Z,21.73
2022-11-24T05:28:11.762Z,25.20
2022-11-24T05:31:02.914Z,24.30
2022-11-24T05:33:52.597Z,19.57
2022-11-24T05:36:56.288Z,22.70
2022-11-24T05:39:43.440Z,17.92
2022-11-24T05:42:47.278Z,36.95
2022-11-24T05:45:32.009Z,18.20
2022-11-24T05:48:19.406Z,24.60
2022-11-24T05:51:09.449Z,31.62
2022-11-24T05:53:55.374Z,39.23
2022-11-24T05:56:44.133Z,31.10
2022-11-24T05:59:31.154Z,24.70
2022-11-24T06:02:19.226Z,21.17
2022-11-24T06:05:06.800Z,19.12
2022-11-24T06:07:54.588Z,23.32
2022-11-24T06:10:42.115Z,23.32
2022-11-24T06:13:29.621Z,25.80
2022-11-24T06:16:17.338Z,22.75
2022-11-24T06:19:04.898Z,33.45
2022-11-24T06:21:53.774Z,26.07
2022-11-24T06:24:40.825Z,22.87
2022-11-24T06:27:28.947Z,20.20
2022-11-24T06:30:16.553Z,27.80
2022-11-24T06:33:04.030Z,23.42
2022-11-24T06:35:51.446Z,22.20
2022-11-24T06:38:38.801Z,20.70
2022-11-24T06:41:28.799Z,25.43
2022-11-24T06:44:16.026Z,22.15
2022-11-24T06:47:03.470Z,25.62
2022-11-24T06:49:51.114Z,19.80
2022-11-24T06:52:38.431Z,19.37
2022-11-24T06:55:25.908Z,14.87
2022-11-24T06:58:13.866Z,28.23
2022-11-24T07:01:01.452Z,30.80
2022-11-24T07:03:49.377Z,17.17
2022-11-24T07:06:36.685Z,26.23
2022-11-24T07:09:24.252Z,30.82
2022-11-24T07:12:11.419Z,25.25
2022-11-24T07:14:59.013Z,23.62
2022-11-24T07:17:46.254Z,31.02
2022-11-24T07:20:33.592Z,26.27
2022-11-24T07:23:21.145Z,23.05
2022-11-24T07:26:09.468Z,26.30
2022-11-24T07:28:57.011Z,28.95
2022-11-24T07:31:45.862Z,23.60
2022-11-24T07:34:33.289Z,18.25
2022-11-24T07:37:20.431Z,24.65
2022-11-24T07:40:11.537Z,48.23
2022-11-24T07:43:01.588Z,15.75
2022-11-24T07:45:53.617Z,26.35
2022-11-24T07:48:42.574Z,33.78
2022-11-24T07:51:29.881Z,34.85
2022-11-24T07:54:17.100Z,24.63
2022-11-24T07:57:07.113Z,31.48
2022-11-24T07:59:54.588Z,22.65
2022-11-24T08:02:41.857Z,32.70
2022-11-24T08:05:29.238Z,21.57
2022-11-24T08:08:16.439Z,22.70
2022-11-24T08:11:08.442Z,27.00
2022-11-24T08:13:56.181Z,25.77
2022-11-24T08:16:43.690Z,25.90
2022-11-24T08:19:32.239Z,28.30
2022-11-24T08:22:19.503Z,24.98
2022-11-24T08:25:07.389Z,34.23
2022-11-24T08:27:54.664Z,30.27
2022-11-24T08:30:44.080Z,23.18
2022-11-24T08:33:32.147Z,22.90
2022-11-24T08:36:20.345Z,25.55
2022-11-24T08:39:08.146Z,25.57
2022-11-24T08:41:55.434Z,25.05
2022-11-24T08:44:43.046Z,20.85
2022-11-24T08:47:30.586Z,23.40
2022-11-24T08:50:18.046Z,31.33
2022-11-24T08:53:05.490Z,21.17
2022-11-24T08:55:53.302Z,30.25
2022-11-24T08:58:41.508Z,20.55
2022-11-24T09:01:29.948Z,23.90
2022-11-24T09:04:17.486Z,25.37
2022-11-24T09:07:05.240Z,21.10
2022-11-24T09:09:52.881Z,18.82
2022-11-24T09:12:40.077Z,18.48
2022-11-24T09:15:27.323Z,19.50
2022-11-24T09:18:14.541Z,17.90
2022-11-24T09:21:11.124Z,16.82
2022-11-24T09:23:58.307Z,17.90
2022-11-24T09:26:47.640Z,18.52
2022-11-24T09:29:35.804Z,19.62
2022-11-24T09:32:23.417Z,11.90
2022-11-24T09:35:10.767Z,15.40
2022-11-24T09:37:58.210Z,11.97
2022-11-24T09:40:45.452Z,13.18
2022-11-24T09:43:52.652Z,17.12
2022-11-24T09:47:01.536Z,16.12
2022-11-24T09:50:00.744Z,16.07
2022-11-24T09:52:51.177Z,11.18
2022-11-24T09:55:41.617Z,12.53
2022-11-24T09:58:38.030Z,16.02
2022-11-24T10:01:52.374Z,8.13
2022-11-24T10:04:42.881Z,18.67
2022-11-24T10:07:33.292Z,8.53
2022-11-24T10:10:25.230Z,10.20
2022-11-24T10:13:27.854Z,11.88
2022-11-24T10:16:21.390Z,12.98
2022-11-24T10:19:36.343Z,14.13
2022-11-24T10:22:18.199Z,11.03
2022-11-24T10:25:08.463Z,10.58
2022-11-24T10:28:02.055Z,12.80
2022-11-24T10:30:50.360Z,13.25
2022-11-24T10:33:37.845Z,12.95
2022-11-24T10:36:28.576Z,13.25
2022-11-24T10:39:50.475Z,9.73
2022-11-24T10:42:38.247Z,16.25
2022-11-24T10:45:27.607Z,14.87
2022-11-24T10:48:21.087Z,11.53
2022-11-24T10:51:23.721Z,12.13
2022-11-24T10:54:16.960Z,10.00
2022-11-24T10:57:04.562Z,12.93
2022-11-24T10:59:51.908Z,9.78
2022-11-24T11:02:40.835Z,10.63
2022-11-24T11:05:43.180Z,13.62
2022-11-24T11:08:32.874Z,13.93
2022-11-24T11:11:30.855Z,7.67
2022-11-24T11:14:37.835Z,9.55
2022-11-24T11:17:39.405Z,10.63
2022-11-24T11:20:37.552Z,7.28
2022-11-24T11:23:36.419Z,10.75
2022-11-24T11:26:38.679Z,8.85
2022-11-24T11:35:17.887Z,9.95
2022-11-24T11:38:06.851Z,8.90
2022-11-24T11:40:54.571Z,10.15
2022-11-24T11:43:42.306Z,12.55
2022-11-24T11:46:31.825Z,9.93
2022-11-24T11:49:19.099Z,7.75
2022-11-24T11:52:30.350Z,14.53
2022-11-24T11:55:29.773Z,7.50
2022-11-24T11:58:25.982Z,9.03
2022-11-24T12:01:35.919Z,12.23
2022-11-24T12:04:47.769Z,10.38
2022-11-24T12:07:41.126Z,9.03
2022-11-24T12:10:42.815Z,9.00
2022-11-24T12:13:33.430Z,10.00
2022-11-24T12:16:55.333Z,6.15
2022-11-24T12:19:51.355Z,7.50
2022-11-24T12:22:41.720Z,11.63
2022-11-24T12:25:50.675Z,8.85
2022-11-24T12:28:43.847Z,7.58
2022-11-24T12:31:48.831Z,11.28
2022-11-24T12:34:48.210Z,12.07
2022-11-24T12:37:55.436Z,10.88
2022-11-24T12:41:33.575Z,8.48
2022-11-24T12:43:57.257Z,11.00
2022-11-24T12:46:50.651Z,10.85
2022-11-24T12:50:00.659Z,10.53
2022-11-24T12:53:34.537Z,7.70
2022-11-24T12:56:27.962Z,27.17
2022-11-24T12:59:30.454Z,14.45
2022-11-24T13:02:32.918Z,9.45
2022-11-24T13:05:23.381Z,7.55
2022-11-24T13:08:10.830Z,9.28
2022-11-24T13:11:17.297Z,9.65
2022-11-24T13:14:10.496Z,4.63
2022-11-24T13:19:53.064Z,7.50
2022-11-24T13:22:40.473Z,11.43
2022-11-24T13:25:30.506Z,10.65
2022-11-24T13:28:39.473Z,13.28
2022-11-24T13:31:12.170Z,13.60
2022-11-24T13:33:59.525Z,7.12
2022-11-24T13:36:54.335Z,11.40
2022-11-24T13:40:02.287Z,8.75
2022-11-24T13:43:00.531Z,7.20
2022-11-24T13:45:50.845Z,11.93
2022-11-24T13:48:47.273Z,11.08
2022-11-24T13:51:34.693Z,8.75
2022-11-24T13:54:22.881Z,8.35
2022-11-24T13:57:35.083Z,9.23
2022-11-24T14:00:28.185Z,11.20
2022-11-24T14:03:24.718Z,9.83
2022-11-24T14:06:49.126Z,8.38
2022-11-24T14:09:48.873Z,9.35
2022-11-24T14:12:38.856Z,10.93
2022-11-24T14:15:31.265Z,7.30
2022-11-24T14:18:21.717Z,10.98
2022-11-24T14:21:20.926Z,10.93
2022-11-24T14:24:17.374Z,10.50
2022-11-24T14:27:04.635Z,14.30
2022-11-24T14:29:57.898Z,9.55
2022-11-24T14:32:59.363Z,11.45
2022-11-24T14:35:49.543Z,5.28
2022-11-24T14:38:36.868Z,11.28
2022-11-24T14:41:28.289Z,8.00
2022-11-24T14:44:26.660Z,12.35
2022-11-24T14:47:20.074Z,7.47
2022-11-24T14:50:16.529Z,5.40
2022-11-24T14:53:03.600Z,9.35
2022-11-24T14:55:54.142Z,14.73
2022-11-24T14:58:42.573Z,9.65
2022-11-24T15:01:33.413Z,9.23
2022-11-24T15:05:02.043Z,14.63
2022-11-24T15:07:23.871Z,8.23
2022-11-24T15:10:35.362Z,9.08
2022-11-24T15:13:25.235Z,13.65
2022-11-24T15:16:19.251Z,6.20
2022-11-24T15:19:08.034Z,11.43
2022-11-24T15:21:55.210Z,10.23
2022-11-24T15:24:51.876Z,6.95
2022-11-24T15:27:39.413Z,13.35
2022-11-24T15:30:27.654Z,11.43
2022-11-24T15:33:17.896Z,8.95
2022-11-24T15:36:05.607Z,17.25
2022-11-24T15:38:53.499Z,12.30
2022-11-24T15:41:42.130Z,8.03
2022-11-24T15:44:30.194Z,9.03
2022-11-24T15:47:17.713Z,12.80
2022-11-24T15:50:05.501Z,15.58
2022-11-24T15:52:53.021Z,16.00
2022-11-24T15:55:42.010Z,12.23
2022-11-24T15:58:29.285Z,9.63
2022-11-24T16:01:16.831Z,8.68
2022-11-24T16:04:04.622Z,18.57
2022-11-24T16:06:51.890Z,9.33
2022-11-24T16:09:39.155Z,9.85
2022-11-24T16:12:26.341Z,10.50
2022-11-24T16:15:13.934Z,16.15
2022-11-24T16:18:01.049Z,9.90
2022-11-24T16:20:48.545Z,12.28
2022-11-24T16:23:36.518Z,9.48
2022-11-24T16:26:23.785Z,8.75
2022-11-24T16:29:11.087Z,6.75
2022-11-24T16:31:58.543Z,4.47
2022-11-24T16:34:45.835Z,6.28
2022-11-24T16:37:33.411Z,8.80
2022-11-24T16:40:20.559Z,4.28
2022-11-24T16:43:07.837Z,7.65
2022-11-24T16:46:16.276Z,8.08
2022-11-24T16:49:04.349Z,11.18
2022-11-24T16:51:51.854Z,5.80
2022-11-24T16:54:39.362Z,9.78
2022-11-24T16:57:26.811Z,8.80
2022-11-24T17:00:17.330Z,9.75
2022-11-24T17:03:23.782Z,8.80
2022-11-24T17:06:15.780Z,9.05
2022-11-24T17:09:03.105Z,12.70
2022-11-24T17:11:50.359Z,14.47
2022-11-24T17:14:37.896Z,11.90
2022-11-24T17:17:25.497Z,9.48
2022-11-24T17:20:13.196Z,10.95
2022-11-24T17:23:00.277Z,14.60
2022-11-24T17:25:48.672Z,11.30
2022-11-24T17:28:36.685Z,11.22
2022-11-24T17:31:30.653Z,17.77
2022-11-24T17:34:18.095Z,10.38
2022-11-24T17:37:05.596Z,12.73
2022-11-24T17:40:20.365Z,7.03
2022-11-24T17:42:41.736Z,10.40
2022-11-24T17:45:30.584Z,16.60
2022-11-24T17:48:17.818Z,10.03
2022-11-24T17:51:12.573Z,10.08
2022-11-24T17:54:01.212Z,11.08
2022-11-24T17:56:48.718Z,10.30
2022-11-24T17:59:36.161Z,11.93
2022-11-24T18:02:23.567Z,15.48
2022-11-24T18:05:10.844Z,7.83
2022-11-24T18:07:58.423Z,10.00
2022-11-24T18:10:46.718Z,16.20
2022-11-24T18:13:55.784Z,18.62
2022-11-24T18:16:24.194Z,18.55
2022-11-24T18:19:11.994Z,17.37
2022-11-24T18:21:59.585Z,12.68
2022-11-24T18:24:47.161Z,19.85
2022-11-24T18:27:36.300Z,20.92
2022-11-24T18:30:23.338Z,14.38
2022-11-24T18:33:10.654Z,17.25
2022-11-24T18:35:59.608Z,13.22
2022-11-24T18:38:47.106Z,17.80
2022-11-24T18:41:34.869Z,21.10
2022-11-24T18:44:22.107Z,11.93
2022-11-24T18:47:09.502Z,15.50
2022-11-24T18:49:58.564Z,15.15
2022-11-24T18:52:45.870Z,14.13
2022-11-24T18:55:33.062Z,10.75
2022-11-24T18:58:20.263Z,15.08
2022-11-24T19:01:13.376Z,14.35
2022-11-24T19:04:02.948Z,8.50
2022-11-24T19:06:50.517Z,12.23
2022-11-24T19:09:38.086Z,13.43
2022-11-24T19:12:25.216Z,15.20
2022-11-24T19:15:12.554Z,12.82
2022-11-24T19:18:00.183Z,9.15
2022-11-24T19:20:47.124Z,16.10
2022-11-24T19:23:34.624Z,15.13
2022-11-24T19:26:21.839Z,19.45
2022-11-24T19:29:09.376Z,19.05
2022-11-24T19:31:56.791Z,13.13
2022-11-24T19:34:43.978Z,17.23
2022-11-24T19:37:31.599Z,21.30
2022-11-24T19:40:19.433Z,26.93
2022-11-24T19:43:06.895Z,22.67
2022-11-24T19:45:54.487Z,17.05
2022-11-24T19:48:43.579Z,27.37
2022-11-24T19:51:33.597Z,13.48
2022-11-24T19:54:21.014Z,16.90
2022-11-24T19:57:08.690Z,17.82
2022-11-24T19:59:56.206Z,17.52
2022-11-24T20:02:43.671Z,18.10
2022-11-24T20:05:30.614Z,21.60
2022-11-24T20:08:17.923Z,23.15
2022-11-24T20:11:10.940Z,22.07
2022-11-24T20:13:59.304Z,24.50
2022-11-24T20:16:47.890Z,17.37
2022-11-24T20:19:34.857Z,19.48
2022-11-24T20:22:22.121Z,14.10
2022-11-24T20:25:10.802Z,29.95
2022-11-24T20:27:58.162Z,19.05
2022-11-24T20:30:45.558Z,25.57
2022-11-24T20:33:33.280Z,28.12
2022-11-24T20:36:23.399Z,21.57
2022-11-24T20:39:22.439Z,16.17
2022-11-24T20:42:09.629Z,17.25
2022-11-24T20:44:58.503Z,16.80
2022-11-24T20:47:45.671Z,18.42
2022-11-24T20:50:34.415Z,19.35
2022-11-24T20:53:21.645Z,18.20
2022-11-24T20:56:11.551Z,18.92
2022-11-24T20:58:59.747Z,25.62
2022-11-24T21:01:48.563Z,25.80
2022-11-24T21:04:37.020Z,21.73
2022-11-24T21:07:24.604Z,19.40
2022-11-24T21:10:11.930Z,18.32
2022-11-24T21:12:59.126Z,26.17
2022-11-24T21:15:46.687Z,25.65
2022-11-24T21:18:35.265Z,19.45
2022-11-24T21:21:24.051Z,20.65
2022-11-24T21:24:16.792Z,21.80
2022-11-24T21:27:03.871Z,20.52
2022-11-24T21:29:51.083Z,13.40
2022-11-24T21:32:38.555Z,19.20
2022-11-24T21:35:25.949Z,16.65
2022-11-24T21:38:14.766Z,16.60
2022-11-24T21:41:03.615Z,21.68
2022-11-24T21:43:52.560Z,16.05
2022-11-24T21:46:44.958Z,12.43
2022-11-24T21:49:28.760Z,15.40
2022-11-24T21:52:16.024Z,15.93
2022-11-24T21:55:03.798Z,15.95
2022-11-24T21:57:51.316Z,11.53
2022-11-24T22:00:38.578Z,16.10
2022-11-24T22:03:26.038Z,15.75
2022-11-24T22:06:14.128Z,10.90
2022-11-24T22:09:01.173Z,18.77
2022-11-24T22:11:53.040Z,18.73
2022-11-24T22:14:40.851Z,19.23
2022-11-24T22:17:31.164Z,12.82
2022-11-24T22:20:18.880Z,18.92
2022-11-24T22:23:06.251Z,13.48
2022-11-24T22:25:53.494Z,19.32
2022-11-24T22:28:41.695Z,14.15
2022-11-24T22:31:31.481Z,16.60
2022-11-24T22:34:18.921Z,17.55
2022-11-24T22:37:06.437Z,20.40
2022-11-24T22:39:53.740Z,21.80
2022-11-24T22:42:41.200Z,13.15
2022-11-24T22:45:28.737Z,23.30
2022-11-24T22:48:15.840Z,21.62
2022-11-24T22:51:05.920Z,14.83
2022-11-24T22:53:56.234Z,22.30
2022-11-24T22:56:43.547Z,18.98
2022-11-24T22:59:30.737Z,16.93
2022-11-24T23:02:18.246Z,27.82
2022-11-24T23:05:06.021Z,16.42
2022-11-24T23:07:53.647Z,19.85
2022-11-24T23:10:41.172Z,16.32
2022-11-24T23:13:28.699Z,21.80
2022-11-24T23:16:18.474Z,19.92
2022-11-24T23:19:06.132Z,18.90
2022-11-24T23:21:53.634Z,24.40
2022-11-24T23:24:41.041Z,19.35
2022-11-24T23:27:28.667Z,24.98
2022-11-24T23:30:15.968Z,27.77
2022-11-24T23:33:03.528Z,35.03
2022-11-24T23:35:50.837Z,28.35
2022-11-24T23:38:38.474Z,27.02
2022-11-24T23:41:26.764Z,29.60
2022-11-24T23:44:13.793Z,21.62
2022-11-24T23:47:01.261Z,28.12
2022-11-24T23:49:48.389Z,31.33
2022-11-24T23:52:36.233Z,38.95
2022-11-24T23:55:23.687Z,27.67
2022-11-24T23:58:11.224Z,23.42
